Time;durP1;ratioP1;P1;durP2;ratioP2;P2;SDS_P1;SDS_P2;PMS_P1;PMS_P2;Temp;Humidity;BMP_temperature;BMP_pressure;BME280_temperature;BME280_humidity;BME280_pressure;Samples;Min_cycle;Max_cycle;Signal;HPM_P1;HPM_P2
2023/03/06 00:00:52;;;;;;;11.43;6.03;;;;;;;-1.42;100.00;97657.22;4159176;28;20176;-72
2023/03/06 00:02:52;;;;;;;11.00;6.35;;;;;;;-1.44;100.00;97656.75;4158475;28;20046;-72
2023/03/06 00:04:53;;;;;;;10.63;5.88;;;;;;;-1.52;100.00;97645.88;4159068;28;20079;-72
2023/03/06 00:06:53;;;;;;;12.20;6.10;;;;;;;-1.55;100.00;97636.47;4159626;28;20053;-72
2023/03/06 00:08:54;;;;;;;13.05;6.57;;;;;;;-1.62;100.00;97640.78;4159056;28;20374;-72
2023/03/06 00:10:55;;;;;;;14.57;7.85;;;;;;;-1.73;100.00;97638.41;4158965;28;20041;-72
2023/03/06 00:13:01;;;;;;;13.68;7.45;;;;;;;-1.80;100.00;97631.84;4158284;28;20057;-72
2023/03/06 00:15:02;;;;;;;14.27;7.45;;;;;;;-1.81;100.00;97631.06;4159217;28;20367;-72
2023/03/06 00:17:02;;;;;;;14.13;6.93;;;;;;;-1.85;100.00;97634.69;4159387;28;20068;-72
2023/03/06 00:19:03;;;;;;;16.42;7.72;;;;;;;-1.87;100.00;97639.66;4159327;28;20179;-72
2023/03/06 00:21:06;;;;;;;13.35;7.32;;;;;;;-1.89;100.00;97637.25;4158700;28;20422;-72
2023/03/06 00:23:08;;;;;;;12.73;6.88;;;;;;;-1.91;100.00;97639.47;4158931;28;20321;-72
2023/03/06 00:25:13;;;;;;;11.73;7.05;;;;;;;-1.91;100.00;97625.91;4158504;28;20520;-72
2023/03/06 00:27:14;;;;;;;14.15;6.82;;;;;;;-1.90;100.00;97627.53;4158567;28;20084;-72
2023/03/06 00:29:14;;;;;;;18.10;7.05;;;;;;;-1.98;100.00;97633.75;4159178;28;20485;-72
2023/03/06 00:31:14;;;;;;;16.42;7.35;;;;;;;-2.04;100.00;97640.41;4159031;28;20084;-72
2023/03/06 00:33:15;;;;;;;17.50;7.55;;;;;;;-2.09;100.00;97630.50;4158422;28;20072;-72
2023/03/06 00:35:15;;;;;;;17.65;7.95;;;;;;;-2.08;100.00;97631.31;4158339;28;20096;-72
2023/03/06 00:37:16;;;;;;;15.80;7.70;;;;;;;-2.08;100.00;97625.88;4158975;28;20432;-72
2023/03/06 00:39:16;;;;;;;15.55;7.32;;;;;;;-2.07;100.00;97620.19;4159111;28;20202;-72
2023/03/06 00:41:16;;;;;;;19.75;8.65;;;;;;;-2.10;100.00;97625.41;4157866;28;20068;-72
2023/03/06 00:43:17;;;;;;;16.25;8.45;;;;;;;-2.11;100.00;97623.81;4158170;28;20045;-72
2023/03/06 00:45:17;;;;;;;13.75;7.97;;;;;;;-2.10;100.00;97633.53;4158906;28;20053;-72
2023/03/06 00:47:17;;;;;;;16.50;9.05;;;;;;;-2.14;100.00;97621.75;4158287;28;20092;-72
2023/03/06 00:49:18;;;;;;;12.65;7.95;;;;;;;-2.18;100.00;97628.91;4158568;28;20047;-72
2023/03/06 00:51:20;;;;;;;15.32;8.43;;;;;;;-2.17;100.00;97625.06;4158621;28;20345;-72
2023/03/06 00:53:20;;;;;;;14.30;8.10;;;;;;;-2.21;100.00;97618.72;4158187;28;20037;-72
2023/03/06 00:55:21;;;;;;;16.30;7.88;;;;;;;-2.13;100.00;97609.78;4158133;28;20033;-72
2023/03/06 00:57:21;;;;;;;15.57;7.75;;;;;;;-2.10;100.00;97614.56;4158641;28;20133;-72
2023/03/06 00:59:22;;;;;;;14.77;6.63;;;;;;;-2.06;100.00;97602.00;4158914;28;20048;-72
2023/03/06 01:01:22;;;;;;;13.15;6.90;;;;;;;-1.96;100.00;97604.41;4158351;28;20140;-72
2023/03/06 01:03:22;;;;;;;12.88;7.00;;;;;;;-1.91;100.00;97606.13;4157573;28;20382;-72
2023/03/06 01:05:23;;;;;;;12.13;6.28;;;;;;;-1.89;100.00;97595.78;4158069;28;20469;-72
2023/03/06 01:07:26;;;;;;;10.10;5.70;;;;;;;-1.81;100.00;97595.81;4157499;28;20041;-72
2023/03/06 01:09:26;;;;;;;10.98;6.18;;;;;;;-1.77;100.00;97594.03;4157120;28;20148;-72
2023/03/06 01:11:27;;;;;;;14.80;6.72;;;;;;;-1.70;100.00;97597.06;4157917;28;20076;-72
2023/03/06 01:13:27;;;;;;;12.80;6.07;;;;;;;-1.64;100.00;97600.44;4157864;28;20132;-72
2023/03/06 01:15:27;;;;;;;12.07;5.85;;;;;;;-1.61;100.00;97582.72;4157918;28;20700;-72
2023/03/06 01:17:28;;;;;;;10.50;6.00;;;;;;;-1.60;100.00;97587.81;4158266;28;20632;-72
2023/03/06 01:19:28;;;;;;;11.95;6.18;;;;;;;-1.60;100.00;97587.00;4158576;28;20654;-72
2023/03/06 01:21:28;;;;;;;10.70;5.70;;;;;;;-1.59;100.00;97580.47;4157947;28;20474;-72
2023/03/06 01:23:29;;;;;;;11.85;6.57;;;;;;;-1.60;100.00;97584.28;4157308;28;20063;-72
2023/03/06 01:25:29;;;;;;;13.40;6.68;;;;;;;-1.59;100.00;97583.16;4158210;28;20069;-72
2023/03/06 01:27:29;;;;;;;11.40;6.07;;;;;;;-1.60;100.00;97573.44;4158400;28;20493;-72
2023/03/06 01:29:30;;;;;;;10.30;5.53;;;;;;;-1.58;100.00;97579.34;4158055;28;20064;-72
2023/03/06 01:31:31;;;;;;;10.38;6.38;;;;;;;-1.58;100.00;97572.00;4157741;28;20072;-72
2023/03/06 01:33:32;;;;;;;13.02;6.72;;;;;;;-1.52;100.00;97569.94;4157859;28;20080;-72
2023/03/06 01:35:33;;;;;;;9.15;5.85;;;;;;;-1.51;100.00;97568.81;4156939;28;20049;-72
2023/03/06 01:37:35;;;;;;;10.32;5.70;;;;;;;-1.49;100.00;97553.81;4157515;28;20107;-72
2023/03/06 01:39:35;;;;;;;11.32;6.00;;;;;;;-1.50;100.00;97556.84;4157262;28;20046;-72
2023/03/06 01:41:36;;;;;;;10.05;5.63;;;;;;;-1.53;100.00;97561.00;4157991;28;20056;-72
2023/03/06 01:43:41;;;;;;;12.18;6.18;;;;;;;-1.54;100.00;97556.69;4157175;28;20128;-72
2023/03/06 01:46:01;;;;;;;11.57;5.97;;;;;;;-1.53;100.00;97557.47;4157687;28;20037;-72
2023/03/06 01:48:01;;;;;;;10.10;5.55;;;;;;;-1.60;100.00;97547.13;4154880;28;20436;-72
2023/03/06 01:50:05;;;;;;;11.50;5.70;;;;;;;-1.61;100.00;97548.25;4157588;28;20025;-72
2023/03/06 01:52:14;;;;;;;10.82;6.03;;;;;;;-1.68;100.00;97550.63;4157334;28;20036;-72
2023/03/06 01:54:21;;;;;;;13.13;6.50;;;;;;;-1.77;100.00;97549.84;4156850;28;20112;-72
2023/03/06 01:56:23;;;;;;;11.68;5.78;;;;;;;-1.91;100.00;97546.50;4157097;28;20061;-72
2023/03/06 01:58:23;;;;;;;13.80;6.50;;;;;;;-1.96;100.00;97536.63;4157805;28;20049;-72
2023/03/06 02:00:26;;;;;;;15.07;6.70;;;;;;;-1.95;100.00;97535.50;4157229;28;20069;-72
2023/03/06 02:02:28;;;;;;;11.48;5.97;;;;;;;-2.04;100.00;97532.00;4157654;28;20405;-72
2023/03/06 02:04:29;;;;;;;19.02;6.43;;;;;;;-2.18;100.00;97524.00;4153773;28;20137;-72
2023/03/06 02:06:29;;;;;;;11.43;6.70;;;;;;;-2.29;100.00;97528.94;4146155;28;20132;-72
2023/03/06 02:08:31;;;;;;;10.02;5.55;;;;;;;-2.32;100.00;97523.34;4157450;28;20042;-72
2023/03/06 02:10:31;;;;;;;12.43;5.73;;;;;;;-2.35;100.00;97518.56;4157906;28;20426;-71
2023/03/06 02:12:32;;;;;;;11.70;6.05;;;;;;;-2.42;100.00;97515.53;4156370;28;20041;-72
2023/03/06 02:14:33;;;;;;;17.05;6.82;;;;;;;-2.39;100.00;97510.31;4157007;28;20374;-72
2023/03/06 02:16:33;;;;;;;9.32;5.63;;;;;;;-2.43;100.00;97512.03;4158288;28;20064;-72
2023/03/06 02:18:35;;;;;;;13.40;6.90;;;;;;;-2.43;100.00;97503.13;4157510;28;20045;-72
2023/03/06 02:20:44;;;;;;;14.60;6.78;;;;;;;-2.50;100.00;97503.56;4157156;28;20398;-72
2023/03/06 02:22:51;;;;;;;12.52;6.30;;;;;;;-2.49;100.00;97504.38;4156314;28;20132;-72
2023/03/06 02:24:57;;;;;;;12.38;6.10;;;;;;;-2.47;100.00;97504.88;4156947;28;20099;-72
2023/03/06 02:26:59;;;;;;;11.77;6.63;;;;;;;-2.50;100.00;97505.50;4157247;28;20133;-72
2023/03/06 02:29:00;;;;;;;13.00;6.72;;;;;;;-2.50;100.00;97503.56;4157042;28;20410;-72
2023/03/06 02:31:01;;;;;;;13.75;6.30;;;;;;;-2.59;100.00;97500.06;4157365;28;20045;-72
2023/03/06 02:33:01;;;;;;;14.27;7.38;;;;;;;-2.63;100.00;97499.09;4156459;28;20046;-72
2023/03/06 02:35:02;;;;;;;12.13;6.15;;;;;;;-2.64;100.00;97497.53;4157069;28;20543;-72
2023/03/06 02:37:08;;;;;;;10.25;5.55;;;;;;;-2.64;100.00;97490.19;4156821;28;20045;-72
2023/03/06 02:39:09;;;;;;;10.77;6.05;;;;;;;-2.55;100.00;97498.31;4156947;28;20055;-72
2023/03/06 02:41:10;;;;;;;14.10;6.53;;;;;;;-2.58;100.00;97483.50;4157428;28;20087;-72
2023/03/06 02:43:14;;;;;;;12.13;6.55;;;;;;;-2.61;100.00;97488.75;4156537;28;20042;-72
2023/03/06 02:45:19;;;;;;;13.93;7.03;;;;;;;-2.64;100.00;97486.69;4157335;28;20072;-72
2023/03/06 02:47:20;;;;;;;9.52;5.75;;;;;;;-2.70;100.00;97469.00;4157272;28;20037;-72
2023/03/06 02:49:21;;;;;;;13.98;6.57;;;;;;;-2.67;100.00;97479.19;4157819;28;20037;-72
2023/03/06 02:51:21;;;;;;;12.90;6.20;;;;;;;-2.65;100.00;97463.41;4160169;28;20033;-71
2023/03/06 02:53:22;;;;;;;12.80;5.95;;;;;;;-2.64;100.00;97467.72;4159647;28;20135;-72
2023/03/06 02:55:23;;;;;;;13.82;7.53;;;;;;;-2.65;100.00;97471.53;4160299;28;20385;-72
2023/03/06 02:57:23;;;;;;;15.50;6.88;;;;;;;-2.65;100.00;97474.22;4160549;28;20526;-72
2023/03/06 02:59:23;;;;;;;12.27;6.28;;;;;;;-2.68;100.00;97472.97;4160291;28;20102;-71
2023/03/06 03:01:24;;;;;;;16.75;7.35;;;;;;;-2.71;100.00;97464.69;4160388;28;20077;-71
2023/03/06 03:03:24;;;;;;;13.35;7.25;;;;;;;-2.73;100.00;97467.72;4160207;28;20049;-72
2023/03/06 03:05:25;;;;;;;15.68;7.03;;;;;;;-2.81;100.00;97457.66;4159809;28;20125;-72
2023/03/06 03:07:25;;;;;;;16.98;7.43;;;;;;;-2.82;100.00;97456.84;4160119;28;20034;-71
2023/03/06 03:09:26;;;;;;;13.38;7.10;;;;;;;-2.85;100.00;97449.38;4160653;28;20052;-71
2023/03/06 03:11:26;;;;;;;14.45;7.00;;;;;;;-2.87;100.00;97453.50;4160378;28;20129;-71
2023/03/06 03:13:26;;;;;;;21.77;7.53;;;;;;;-2.91;100.00;97455.25;4159533;28;20447;-72
2023/03/06 03:15:27;;;;;;;13.55;7.38;;;;;;;-2.95;100.00;97459.69;4160036;28;20052;-72
2023/03/06 03:17:27;;;;;;;12.05;6.15;;;;;;;-2.99;100.00;97456.81;4159665;28;20061;-72
2023/03/06 03:19:28;;;;;;;13.88;7.05;;;;;;;-3.04;100.00;97462.38;4159496;28;20465;-72
2023/03/06 03:21:28;;;;;;;12.45;6.95;;;;;;;-3.04;100.00;97467.00;4159709;28;20051;-72
2023/03/06 03:23:28;;;;;;;13.77;7.00;;;;;;;-3.05;100.00;97460.00;4159735;28;20049;-72
2023/03/06 03:25:28;;;;;;;13.90;6.88;;;;;;;-3.06;100.00;97458.38;4159650;28;20424;-72
2023/03/06 03:27:29;;;;;;;13.82;6.53;;;;;;;-3.16;100.00;97460.25;4160077;28;20061;-72
2023/03/06 03:29:29;;;;;;;14.27;6.95;;;;;;;-3.15;100.00;97450.22;4160174;28;20041;-72
2023/03/06 03:31:31;;;;;;;13.00;6.47;;;;;;;-3.14;100.00;97454.56;4159725;28;20155;-72
2023/03/06 03:33:32;;;;;;;14.65;7.47;;;;;;;-3.20;100.00;97453.91;4158680;28;20053;-71
2023/03/06 03:35:32;;;;;;;13.90;7.30;;;;;;;-3.20;100.00;97451.19;4159047;28;20038;-71
2023/03/06 03:37:33;;;;;;;13.20;6.65;;;;;;;-3.19;100.00;97454.69;4160193;28;20053;-72
2023/03/06 03:39:33;;;;;;;12.05;6.10;;;;;;;-3.14;100.00;97447.25;4159099;28;20091;-72
2023/03/06 03:41:34;;;;;;;12.32;6.80;;;;;;;-3.08;100.00;97438.97;4159836;28;20053;-72
2023/03/06 03:43:34;;;;;;;13.85;6.45;;;;;;;-2.98;100.00;97447.59;4159212;28;20054;-72
2023/03/06 03:45:34;;;;;;;12.60;6.75;;;;;;;-2.94;100.00;97442.34;4159620;28;20068;-72
2023/03/06 03:47:35;;;;;;;13.18;6.22;;;;;;;-2.97;100.00;97434.88;4159663;28;20088;-72
2023/03/06 03:49:35;;;;;;;14.88;6.80;;;;;;;-2.99;100.00;97443.28;4159205;28;20053;-71
2023/03/06 03:51:35;;;;;;;16.92;8.18;;;;;;;-3.02;100.00;97440.41;4160077;28;20120;-72
2023/03/06 03:53:36;;;;;;;18.35;7.32;;;;;;;-2.95;100.00;97438.84;4158849;28;20049;-71
2023/03/06 03:55:37;;;;;;;20.17;9.65;;;;;;;-2.91;100.00;97447.13;4159233;28;20045;-72
2023/03/06 03:57:38;;;;;;;21.70;8.90;;;;;;;-2.88;100.00;97433.78;4159855;28;20083;-72
2023/03/06 03:59:38;;;;;;;22.55;9.18;;;;;;;-2.77;100.00;97430.75;4159389;28;20033;-72
2023/03/06 04:01:38;;;;;;;31.23;13.18;;;;;;;-2.75;100.00;97431.22;4158467;28;20146;-72
2023/03/06 04:03:39;;;;;;;25.58;11.38;;;;;;;-2.76;100.00;97429.63;4158494;28;20060;-72
2023/03/06 04:05:39;;;;;;;27.83;11.70;;;;;;;-2.75;100.00;97417.69;4159293;28;20057;-72
2023/03/06 04:07:40;;;;;;;24.00;10.52;;;;;;;-2.74;100.00;97420.06;4159269;28;20041;-72
2023/03/06 04:09:41;;;;;;;27.40;12.80;;;;;;;-2.73;100.00;97420.88;4159457;28;20053;-72
2023/03/06 04:11:41;;;;;;;29.23;13.50;;;;;;;-2.74;100.00;97417.38;4159287;28;20041;-72
2023/03/06 04:13:41;;;;;;;21.30;9.70;;;;;;;-2.68;100.00;97426.94;4158530;28;20052;-72
2023/03/06 04:15:42;;;;;;;18.52;9.57;;;;;;;-2.74;100.00;97419.28;4159679;28;20540;-72
2023/03/06 04:17:42;;;;;;;15.90;7.72;;;;;;;-2.86;100.00;97415.28;4158809;28;20138;-72
2023/03/06 04:19:42;;;;;;;16.77;8.00;;;;;;;-2.91;100.00;97404.59;4159236;28;20431;-72
2023/03/06 04:21:42;;;;;;;13.50;7.47;;;;;;;-2.89;100.00;97407.03;4159061;28;20076;-71
2023/03/06 04:23:43;;;;;;;17.73;8.15;;;;;;;-2.88;100.00;97403.19;4158641;28;20049;-72
2023/03/06 04:25:44;;;;;;;17.05;7.38;;;;;;;-2.87;100.00;97400.16;4158975;28;20528;-72
2023/03/06 04:27:44;;;;;;;16.27;7.88;;;;;;;-2.78;100.00;97394.75;4158940;28;20528;-72
2023/03/06 04:29:44;;;;;;;16.52;7.95;;;;;;;-2.72;100.00;97393.50;4159069;28;20184;-72
2023/03/06 04:31:45;;;;;;;19.40;8.18;;;;;;;-2.66;100.00;97383.28;4159317;28;20143;-72
2023/03/06 04:33:45;;;;;;;16.33;7.63;;;;;;;-2.59;100.00;97384.41;4153180;28;20984;-72
2023/03/06 04:35:45;;;;;;;16.08;7.50;;;;;;;-2.52;100.00;97375.00;4158055;28;20084;-71
2023/03/06 04:37:46;;;;;;;14.07;7.10;;;;;;;-2.49;100.00;97386.00;4158139;28;20052;-72
2023/03/06 04:39:46;;;;;;;13.90;7.43;;;;;;;-2.49;100.00;97385.19;4158650;28;20041;-72
2023/03/06 04:41:47;;;;;;;16.50;7.85;;;;;;;-2.48;100.00;97384.06;4158320;28;20048;-71
2023/03/06 04:43:47;;;;;;;15.20;7.97;;;;;;;-2.47;100.00;97386.50;4156825;28;20059;-72
2023/03/06 04:45:48;;;;;;;15.80;8.15;;;;;;;-2.49;100.00;97383.28;4154861;28;20053;-72
2023/03/06 04:47:48;;;;;;;18.95;8.18;;;;;;;-2.47;100.00;97377.56;4156433;28;20037;-72
2023/03/06 04:49:48;;;;;;;16.67;8.15;;;;;;;-2.46;100.00;97373.75;4157641;28;20052;-72
2023/03/06 04:51:49;;;;;;;20.60;9.48;;;;;;;-2.45;100.00;97376.13;4158191;28;20045;-72
2023/03/06 04:53:49;;;;;;;18.02;8.93;;;;;;;-2.47;100.00;97359.41;4157470;28;20073;-72
2023/03/06 04:55:49;;;;;;;21.00;8.15;;;;;;;-2.43;100.00;97367.66;4154395;28;20073;-72
2023/03/06 04:57:50;;;;;;;16.67;8.68;;;;;;;-2.43;100.00;97364.97;4155236;28;20049;-72
2023/03/06 04:59:50;;;;;;;19.77;8.02;;;;;;;-2.43;100.00;97365.75;4154487;28;20152;-72
2023/03/06 05:01:50;;;;;;;18.02;9.07;;;;;;;-2.40;100.00;97364.31;4155774;28;20119;-72
2023/03/06 05:03:51;;;;;;;16.80;8.23;;;;;;;-2.40;100.00;97354.31;4155950;28;20175;-72
2023/03/06 05:05:51;;;;;;;16.23;8.23;;;;;;;-2.41;100.00;97351.88;4152306;28;20129;-72
2023/03/06 05:07:53;;;;;;;16.17;8.15;;;;;;;-2.38;100.00;97360.19;4154776;28;20044;-72
2023/03/06 05:09:53;;;;;;;16.40;7.93;;;;;;;-2.37;100.00;97363.69;4156495;28;20187;-72
2023/03/06 05:11:53;;;;;;;16.42;8.13;;;;;;;-2.40;100.00;97362.44;4156741;28;20134;-72
2023/03/06 05:13:54;;;;;;;18.70;8.65;;;;;;;-2.39;100.00;97358.59;4156591;28;20176;-72
2023/03/06 05:15:54;;;;;;;18.77;8.50;;;;;;;-2.43;100.00;97356.84;4157602;28;20041;-72
2023/03/06 05:17:55;;;;;;;19.23;8.85;;;;;;;-2.41;100.00;97349.19;4157954;28;20128;-71
2023/03/06 05:19:55;;;;;;;20.08;8.57;;;;;;;-2.40;100.00;97345.34;4154839;28;20279;-72
2023/03/06 05:21:56;;;;;;;22.35;8.93;;;;;;;-2.44;100.00;97334.38;4156976;28;20049;-72
2023/03/06 05:23:56;;;;;;;19.95;9.25;;;;;;;-2.38;100.00;97348.56;4157285;28;20045;-71
2023/03/06 05:25:57;;;;;;;20.45;9.07;;;;;;;-2.37;100.00;97342.81;4157760;28;20548;-72
2023/03/06 05:27:57;;;;;;;19.25;8.68;;;;;;;-2.37;100.00;97339.31;4155171;28;21748;-72
2023/03/06 05:29:58;;;;;;;18.17;9.23;;;;;;;-2.35;100.00;97340.56;4157135;28;20057;-72
2023/03/06 05:31:58;;;;;;;18.27;8.13;;;;;;;-2.32;100.00;97336.41;4155535;28;20050;-72
2023/03/06 05:33:59;;;;;;;16.40;8.10;;;;;;;-2.31;100.00;97335.31;4156582;28;20053;-72
2023/03/06 05:36:00;;;;;;;21.73;9.68;;;;;;;-2.29;100.00;97342.00;4154903;28;20140;-72
2023/03/06 05:38:00;;;;;;;21.73;9.23;;;;;;;-2.29;100.00;97336.59;4157405;28;20049;-72
2023/03/06 05:40:03;;;;;;;19.08;8.88;;;;;;;-2.31;100.00;97329.91;4157658;28;20441;-72
2023/03/06 05:42:04;;;;;;;21.15;9.30;;;;;;;-2.27;100.00;97337.06;4156930;28;20518;-71
2023/03/06 05:44:04;;;;;;;18.38;8.40;;;;;;;-2.28;100.00;97331.97;4157309;28;20052;-72
2023/03/06 05:46:06;;;;;;;13.50;7.22;;;;;;;-2.28;100.00;97338.16;4157342;28;20025;-71
2023/03/06 05:48:06;;;;;;;20.02;8.52;;;;;;;-2.27;100.00;97336.25;4157202;28;20099;-72
2023/03/06 05:50:09;;;;;;;18.20;8.73;;;;;;;-2.28;100.00;97343.59;4157616;28;20013;-72
2023/03/06 05:52:10;;;;;;;17.63;7.55;;;;;;;-2.27;100.00;97331.63;4157634;28;20029;-72
2023/03/06 05:54:11;;;;;;;17.95;7.78;;;;;;;-2.26;100.00;97340.56;4155937;28;20031;-72
2023/03/06 05:56:12;;;;;;;17.83;7.95;;;;;;;-2.27;100.00;97337.06;4070187;28;20139;-72
2023/03/06 05:58:12;;;;;;;16.10;8.50;;;;;;;-2.24;100.00;97332.88;4166981;28;20044;-72
2023/03/06 06:00:14;;;;;;;19.85;9.27;;;;;;;-2.16;100.00;97342.13;4155472;28;20057;-72
2023/03/06 06:02:15;;;;;;;20.73;9.73;;;;;;;-2.11;100.00;97331.91;4156493;28;20460;-71
2023/03/06 06:04:15;;;;;;;20.92;9.95;;;;;;;-2.04;100.00;97334.13;4154967;28;20453;-72
2023/03/06 06:06:16;;;;;;;21.55;9.93;;;;;;;-1.98;100.00;97330.13;4155757;28;20032;-72
2023/03/06 06:08:17;;;;;;;20.25;9.05;;;;;;;-1.94;100.00;97332.97;4157382;28;20107;-72
2023/03/06 06:10:17;;;;;;;18.05;9.55;;;;;;;-1.90;100.00;97329.31;4156823;28;20033;-72
2023/03/06 06:12:18;;;;;;;17.23;8.98;;;;;;;-1.86;100.00;97326.72;4157159;28;20481;-72
2023/03/06 06:14:19;;;;;;;19.45;8.82;;;;;;;-1.83;100.00;97323.34;4156294;28;20453;-72
2023/03/06 06:16:19;;;;;;;19.45;8.85;;;;;;;-1.76;100.00;97312.81;4157736;28;20025;-72
2023/03/06 06:18:20;;;;;;;19.05;8.40;;;;;;;-1.70;100.00;97322.34;4157486;28;20031;-72
2023/03/06 06:20:20;;;;;;;17.88;8.73;;;;;;;-1.66;100.00;97334.13;4157626;28;20172;-72
2023/03/06 06:22:20;;;;;;;18.40;8.48;;;;;;;-1.64;100.00;97328.41;4157304;28;20057;-72
2023/03/06 06:24:23;;;;;;;16.48;7.75;;;;;;;-1.62;100.00;97326.94;4156132;28;20569;-72
2023/03/06 06:26:23;;;;;;;;;;;;;;;-1.61;100.00;97322.31;4157728;28;20047;-72
2023/03/06 06:28:24;;;;;;;17.75;8.55;;;;;;;-1.60;100.00;97323.91;4157724;28;20665;-72
2023/03/06 06:30:24;;;;;;;19.95;8.50;;;;;;;-1.57;100.00;97326.78;4156981;28;20045;-71
2023/03/06 06:32:24;;;;;;;19.27;8.50;;;;;;;-1.55;100.00;97326.44;4156471;28;20386;-72
2023/03/06 06:34:25;;;;;;;16.10;7.70;;;;;;;-1.55;100.00;97326.44;4157028;28;20053;-72
2023/03/06 06:36:25;;;;;;;18.67;8.65;;;;;;;-1.51;100.00;97319.22;4156954;28;20053;-72
2023/03/06 06:38:25;;;;;;;18.05;8.63;;;;;;;-1.49;100.00;97319.69;4154401;28;20037;-72
2023/03/06 06:40:27;;;;;;;18.05;8.48;;;;;;;-1.48;100.00;97316.66;4155159;28;20435;-72
2023/03/06 06:42:27;;;;;;;17.55;8.95;;;;;;;-1.45;100.00;97320.63;4156400;28;20041;-72
2023/03/06 06:44:27;;;;;;;15.23;8.10;;;;;;;-1.43;100.00;97315.66;4156443;28;20568;-72
2023/03/06 06:46:28;;;;;;;17.75;9.15;;;;;;;-1.38;100.00;97325.56;4157720;28;20037;-72
2023/03/06 06:48:28;;;;;;;19.45;9.65;;;;;;;-1.37;100.00;97319.00;4156836;28;20124;-72
2023/03/06 06:50:28;;;;;;;15.88;8.35;;;;;;;-1.30;100.00;97317.34;4156865;28;20077;-72
2023/03/06 06:52:29;;;;;;;16.73;8.15;;;;;;;-1.27;100.00;97321.31;4156779;28;20073;-72
2023/03/06 06:54:29;;;;;;;17.75;8.50;;;;;;;-1.23;100.00;97325.00;4157745;28;20041;-72
2023/03/06 06:56:29;;;;;;;17.98;8.73;;;;;;;-1.20;100.00;97319.69;4157676;28;20044;-72
2023/03/06 06:58:30;;;;;;;17.45;8.02;;;;;;;-1.17;100.00;97310.88;4155644;28;20042;-72
2023/03/06 07:00:30;;;;;;;21.08;9.00;;;;;;;-1.11;100.00;97316.91;4157974;28;20172;-72
2023/03/06 07:02:31;;;;;;;19.77;9.75;;;;;;;-1.05;100.00;97318.31;4156381;28;20077;-72
2023/03/06 07:04:31;;;;;;;20.75;8.60;;;;;;;-0.98;100.00;97323.22;4157258;28;20080;-72
2023/03/06 07:06:31;;;;;;;22.80;11.00;;;;;;;-0.90;100.00;97315.00;4157918;28;20072;-72
2023/03/06 07:08:33;;;;;;;21.95;11.10;;;;;;;-0.74;100.00;97317.13;4154487;28;20095;-72
2023/03/06 07:10:34;;;;;;;19.52;9.60;;;;;;;-0.69;100.00;97317.69;4156214;28;20128;-72
2023/03/06 07:12:36;;;;;;;19.33;9.80;;;;;;;-0.66;100.00;97327.13;4155523;28;20033;-72
2023/03/06 07:14:36;;;;;;;17.95;10.43;;;;;;;-0.64;100.00;97322.94;4157376;28;20365;-72
2023/03/06 07:16:36;;;;;;;18.10;10.00;;;;;;;-0.59;100.00;97311.06;4157423;28;20046;-72
2023/03/06 07:18:37;;;;;;;23.05;10.85;;;;;;;-0.59;100.00;97314.56;4157392;28;20076;-72
2023/03/06 07:20:37;;;;;;;18.88;10.27;;;;;;;-0.57;100.00;97314.25;4157623;28;20394;-72
2023/03/06 07:22:37;;;;;;;18.60;9.52;;;;;;;-0.49;100.00;97318.03;4156729;28;20590;-72
2023/03/06 07:24:37;;;;;;;18.73;9.40;;;;;;;-0.51;100.00;97318.34;4157401;28;20092;-72
2023/03/06 07:26:38;;;;;;;20.20;9.02;;;;;;;-0.53;100.00;97322.53;4157344;28;20313;-72
2023/03/06 07:28:38;;;;;;;17.05;9.25;;;;;;;-0.54;100.00;97312.78;4157507;28;20050;-72
2023/03/06 07:30:40;;;;;;;18.60;8.82;;;;;;;-0.57;100.00;97314.25;4157260;28;20502;-72
2023/03/06 07:32:40;;;;;;;18.98;9.45;;;;;;;-0.58;100.00;97316.19;4156394;28;20049;-72
2023/03/06 07:34:41;;;;;;;19.02;8.93;;;;;;;-0.52;100.00;97321.41;4157921;28;20080;-72
2023/03/06 07:36:42;;;;;;;16.75;9.70;;;;;;;-0.49;100.00;97318.03;4157932;28;20398;-72
2023/03/06 07:38:42;;;;;;;22.52;10.73;;;;;;;-0.47;100.00;97321.19;4160253;28;20038;-72
2023/03/06 07:40:43;;;;;;;18.58;8.95;;;;;;;-0.45;100.00;97318.94;4160707;28;20057;-72
2023/03/06 07:42:43;;;;;;;17.23;8.82;;;;;;;-0.42;100.00;97324.47;4159276;28;20541;-72
2023/03/06 07:44:43;;;;;;;19.80;8.60;;;;;;;-0.38;100.00;97319.19;4160537;28;20049;-72
2023/03/06 07:46:44;;;;;;;18.40;9.18;;;;;;;-0.35;100.00;97313.06;4160692;28;20085;-72
2023/03/06 07:48:44;;;;;;;19.92;10.30;;;;;;;-0.32;100.00;97310.50;4160250;28;20069;-71
2023/03/06 07:50:44;;;;;;;21.67;9.13;;;;;;;-0.15;100.00;97314.16;4160023;28;20060;-71
2023/03/06 07:52:45;;;;;;;18.58;9.30;;;;;;;-0.15;100.00;97312.25;4159195;28;20033;-72
2023/03/06 07:54:45;;;;;;;17.08;8.48;;;;;;;-0.13;100.00;97309.97;4160699;28;20171;-72
2023/03/06 07:56:49;;;;;;;17.30;8.60;;;;;;;-0.10;100.00;97314.72;4159644;28;20176;-72
2023/03/06 07:58:49;;;;;;;19.60;10.07;;;;;;;-0.07;100.00;97314.06;4160174;28;20397;-72
2023/03/06 08:00:50;;;;;;;17.02;9.77;;;;;;;0.02;100.00;97307.75;4159950;28;20044;-72
2023/03/06 08:02:50;;;;;;;23.10;10.30;;;;;;;0.02;100.00;97310.47;4162478;28;20092;-72
2023/03/06 08:04:52;;;;;;;18.60;9.65;;;;;;;0.04;100.00;97310.91;4179146;28;20041;-72
2023/03/06 08:06:56;;;;;;;16.48;9.07;;;;;;;0.05;100.00;97307.84;4158608;28;20087;-72
2023/03/06 08:08:57;;;;;;;18.80;9.05;;;;;;;0.13;100.00;97311.59;4159887;28;20046;-72
2023/03/06 08:10:57;;;;;;;16.70;8.93;;;;;;;0.14;100.00;97311.25;4160019;28;20479;-72
2023/03/06 08:12:57;;;;;;;23.38;9.45;;;;;;;0.21;100.00;97306.06;4159273;28;20496;-72
2023/03/06 08:14:58;;;;;;;23.05;9.93;;;;;;;0.25;100.00;97309.72;4159700;28;20270;-72
2023/03/06 08:16:58;;;;;;;19.95;9.52;;;;;;;0.28;100.00;97308.22;4160164;28;20075;-72
2023/03/06 08:18:58;;;;;;;18.77;10.35;;;;;;;0.37;100.00;97308.91;4159993;28;20473;-72
2023/03/06 08:21:17;;;;;;;16.33;8.70;;;;;;;0.43;100.00;97315.72;4159798;28;20113;-72
2023/03/06 08:23:17;;;;;;;20.48;9.68;;;;;;;0.41;100.00;97314.44;4159149;28;20064;-72
2023/03/06 08:25:18;;;;;;;20.02;8.93;;;;;;;0.37;100.00;97317.06;4159094;28;20482;-72
2023/03/06 08:27:18;;;;;;;16.20;8.57;;;;;;;0.39;100.00;97327.59;4159791;28;20052;-72
2023/03/06 08:29:19;;;;;;;19.73;9.73;;;;;;;0.41;100.00;97317.97;4159794;28;20057;-72
2023/03/06 08:31:30;;;;;;;19.10;9.65;;;;;;;0.46;100.00;97323.19;4159772;28;20094;-72
2023/03/06 08:33:30;;;;;;;16.30;8.65;;;;;;;0.47;100.00;97316.63;4159461;28;20037;-72
2023/03/06 08:35:31;;;;;;;16.48;8.77;;;;;;;0.49;100.00;97317.06;4159073;28;20486;-72
2023/03/06 08:37:31;;;;;;;17.00;8.70;;;;;;;0.52;100.00;97313.69;4159444;28;20041;-72
2023/03/06 08:39:31;;;;;;;16.33;9.02;;;;;;;0.58;100.00;97319.69;4159874;28;20493;-72
2023/03/06 08:41:32;;;;;;;18.52;9.10;;;;;;;0.61;100.00;97316.28;4159053;28;20536;-72
2023/03/06 08:43:34;;;;;;;20.35;9.50;;;;;;;0.68;100.00;97318.44;4158902;28;20065;-72
2023/03/06 08:45:35;;;;;;;18.45;10.70;;;;;;;0.73;100.00;97320.91;4159405;28;20436;-72
2023/03/06 08:47:35;;;;;;;20.38;9.60;;;;;;;0.73;100.00;97320.91;4159089;28;20133;-72
2023/03/06 08:49:38;;;;;;;16.67;8.98;;;;;;;0.73;100.00;97321.69;4159245;28;20080;-72
2023/03/06 08:51:38;;;;;;;16.52;8.65;;;;;;;0.74;100.00;97317.06;4159526;28;20041;-71
2023/03/06 08:53:39;;;;;;;15.55;8.98;;;;;;;0.75;100.00;97321.38;4158407;28;20053;-72
2023/03/06 08:55:39;;;;;;;16.33;7.97;;;;;;;0.72;100.00;97320.13;4159241;28;20045;-71
2023/03/06 08:57:39;;;;;;;18.40;9.05;;;;;;;0.73;100.00;97318.97;4159540;28;20050;-71
2023/03/06 08:59:41;;;;;;;15.38;8.60;;;;;;;0.75;100.00;97321.38;4159085;28;20386;-72
2023/03/06 09:01:41;;;;;;;17.08;9.35;;;;;;;0.78;100.00;97324.22;4159404;28;20052;-72
2023/03/06 09:03:41;;;;;;;17.60;8.43;;;;;;;0.79;100.00;97322.28;4158532;28;20038;-72
2023/03/06 09:05:42;;;;;;;13.73;7.38;;;;;;;0.80;100.00;97326.59;4159000;28;20154;-72
2023/03/06 09:07:42;;;;;;;15.30;7.75;;;;;;;0.76;100.00;97328.41;4159208;28;20168;-72
2023/03/06 09:09:43;;;;;;;15.70;7.97;;;;;;;0.71;100.00;97332.16;4158608;28;20061;-72
2023/03/06 09:11:43;;;;;;;14.40;8.40;;;;;;;0.70;100.00;97336.00;4158888;28;20745;-72
2023/03/06 09:13:44;;;;;;;15.75;7.95;;;;;;;0.64;100.00;97331.91;4158227;28;20045;-71
2023/03/06 09:15:44;;;;;;;13.25;7.40;;;;;;;0.67;100.00;97335.91;4159866;28;20045;-71
2023/03/06 09:17:46;;;;;;;12.75;7.35;;;;;;;0.66;100.00;97331.56;4158684;28;20081;-72